Aeroporto :
LOGIN :

Iscrizione | Disclaimer

   EN    FR    IT 

 










Sommario :    VFR   VFR Marginale   IFR   IFR Intensivo   IFR Molto Intensivo
Visibilità : 
Base nubi : 
>= 8 km
>= 3000ft
5 / 8 km
1000 / 3000 ft
1500m / 5 km
500 / 1000 ft
800 / 1500m
200 / 500 ft
< 800m
< 200 ft
Simboli :   Temporali  Nebbia  Neve Forte  Precipitazioni Forti  Vento > 20 kt
SIGMETs :   Varie  Temporali  Ghiacco  Turbolenza  Onda orograficha  Ceneri Vulcaniche






- Altitudine del aeroporto : 299 ft
- Codice IATA : EDM


LFRI - La Roche Sur Yon - Les Ajoncs

ULTIMO METAR :
  • 131500Z AUTO 24005KT 180V310 9999 FEW038 21/12 Q1014

METARs OBSOLETI :
  • 131430Z AUTO 26007KT 190V330 9999 FEW033 SCT058 21/12 Q1015
  • 131400Z AUTO 26007KT 210V300 9999 BKN036 BKN048 BKN058 21/12 Q1015
  • 131330Z AUTO VRB03KT 9999 FEW037 BKN064 21/12 Q1015
  • 131300Z AUTO 25006KT 210V280 9999 FEW036 OVC058 19/12 Q1015
  • 131230Z AUTO 27006KT 230V310 9999 FEW030 SCT035 BKN043 19/12 Q1015
  • 131200Z AUTO 24003KT 180V310 9999 SCT037 OVC066 19/11 Q1015
  • 131130Z AUTO 26004KT 220V310 9999 FEW039 SCT047 OVC058 19/12 Q1015
  • 131100Z AUTO 22003KT 170V270 9999 FEW036 OVC062 19/11 Q1016
  • 131030Z AUTO 22004KT 180V260 9999 FEW034 19/11 Q1016

TAF TAF LFRI
Valido dal 12 a 18 ore il 13 a 18 ore UTC


121700Z 1218/1318 28010KT 9999 BKN030
BECMG 1300/1304 VRB03KT
PROB30 1302/1306 0600 FG



MetMap, La meteo Aeronautica in un colpo d'occhio ! - Copyright ORBIFLY Dicembre 2007 - Disclaimer

ORBIFLY MET'MAP TEAM :

Programmazione e sviluppo : Alexandra Zaïnal
Concezione : Baudouin d'Aumeries
Supporto tecnico e logistico : Manuel Goepfert
Aiuto : Marc-Olivier Méhu
Aiuto per la traduzione : Arnaldo La Scala




FONTI E CREDITI :

   NOAA